createdAt,value
2023-04-28T00:15:46.202Z,8.9
2023-04-28T00:25:46.488Z,8.9
2023-04-28T00:35:46.225Z,8.9
2023-04-28T00:40:46.234Z,8.9
2023-04-28T00:50:46.218Z,8.9
2023-04-28T00:55:46.227Z,8.9
2023-04-28T01:00:46.284Z,8.9
2023-04-28T01:05:46.209Z,8.9
2023-04-28T04:25:46.326Z,8
2023-04-28T07:20:46.363Z,6.9
2023-04-28T07:30:46.352Z,6.9
2023-04-28T07:35:46.382Z,6.9
2023-04-28T07:40:46.358Z,6.9
2023-04-28T07:50:46.374Z,6.9
2023-04-28T08:00:46.374Z,6.8
2023-04-28T08:10:46.397Z,6.7
2023-04-28T08:20:46.390Z,6.7
2023-04-28T08:35:46.371Z,6.7
2023-04-28T08:45:46.397Z,6.6
2023-04-28T08:55:46.421Z,6.5
2023-04-28T09:00:46.420Z,6.4
2023-04-28T09:10:46.401Z,6.4
2023-04-28T09:15:46.424Z,6.3
2023-04-28T09:20:46.406Z,6.2
2023-04-28T09:30:46.422Z,6.2
2023-04-28T09:40:46.400Z,6.2
2023-04-28T09:45:46.464Z,6.1
2023-04-28T10:00:46.405Z,6.1
2023-04-28T10:10:46.427Z,6
2023-04-28T10:20:46.443Z,5.9
2023-04-28T10:25:46.421Z,5.9
2023-04-28T10:35:46.450Z,5.9
2023-04-28T10:40:46.428Z,5.9
2023-04-28T10:50:46.430Z,5.9
2023-04-28T10:55:46.453Z,5.9
2023-04-28T11:20:46.446Z,5.8
2023-04-28T11:30:46.443Z,5.8
2023-04-28T11:35:46.416Z,5.8
2023-04-28T11:45:46.489Z,5.7
2023-04-28T11:55:46.429Z,5.7
2023-04-28T12:00:46.478Z,5.7
2023-04-28T12:10:46.436Z,5.7
2023-04-28T12:20:46.466Z,5.7
2023-04-28T12:40:46.459Z,5.9
2023-04-28T12:50:46.456Z,5.9
2023-04-28T12:55:46.464Z,6
2023-04-28T13:05:46.463Z,6
2023-04-28T13:15:46.504Z,6
2023-04-28T13:20:46.486Z,6
2023-04-28T13:30:46.478Z,6.1
2023-04-28T13:55:47.789Z,6.1
2023-04-28T14:05:49.679Z,6.1
2023-04-28T14:10:46.477Z,6.1
2023-04-28T14:20:46.444Z,6.1
2023-04-28T14:25:46.447Z,6
2023-04-28T14:30:46.504Z,6.1
2023-04-28T14:35:46.469Z,6.1
2023-04-28T14:40:46.495Z,6.1
2023-04-28T14:50:46.458Z,6.1
2023-04-28T14:55:46.476Z,6.1
2023-04-28T15:15:46.503Z,6.1
2023-04-28T15:20:46.488Z,6.2
2023-04-28T15:30:46.474Z,6.2
2023-04-28T15:40:46.511Z,6.2
2023-04-28T15:50:46.493Z,6.3
2023-04-28T15:55:46.490Z,6.2
2023-04-28T16:05:46.464Z,6.2
2023-04-28T16:10:46.485Z,6.2
2023-04-28T16:15:46.484Z,6.2
2023-04-28T16:30:46.472Z,6.2
2023-04-28T16:35:46.521Z,6.2
2023-04-28T16:45:46.535Z,6.2
2023-04-28T16:50:46.674Z,6.1
2023-04-28T17:05:46.514Z,6.1
2023-04-28T17:15:46.533Z,6.1
2023-04-28T17:25:46.501Z,6.2
2023-04-28T17:50:46.509Z,6.2
2023-04-28T18:00:46.533Z,6.2
2023-04-28T18:10:46.500Z,6.2
2023-04-28T18:15:46.508Z,6.1
2023-04-28T18:25:46.520Z,6.2
2023-04-28T18:30:46.513Z,6.1
2023-04-28T18:40:46.528Z,6.1
2023-04-28T18:50:46.507Z,6.1
2023-04-28T19:10:46.543Z,6.1
2023-04-28T19:20:46.517Z,6.1
2023-04-28T19:25:46.519Z,6.1
2023-04-28T19:30:46.551Z,6.1
2023-04-28T19:40:46.537Z,6.1
2023-04-28T19:50:46.516Z,6.1
2023-04-28T19:55:46.614Z,6.1
2023-04-28T20:00:46.542Z,6.2
2023-04-28T20:05:46.554Z,6.1
2023-04-28T20:10:46.541Z,6.1
2023-04-28T20:25:46.556Z,6.1
2023-04-28T20:40:46.544Z,6.1
2023-04-28T20:45:46.554Z,6.1
2023-04-28T20:55:46.532Z,6.1
2023-04-28T21:00:46.633Z,6
2023-04-28T21:10:46.527Z,5.9
2023-04-28T21:15:46.567Z,5.9
2023-04-28T21:20:46.545Z,5.9
2023-04-28T21:25:46.577Z,5.9
2023-04-28T21:45:46.626Z,5.9
2023-04-28T21:55:46.567Z,5.8
2023-04-28T22:05:46.581Z,5.8
2023-04-28T22:15:46.613Z,5.7
2023-04-28T22:25:46.586Z,5.7
2023-04-28T22:35:46.574Z,5.7
2023-04-28T22:45:46.566Z,5.7
2023-04-28T23:05:46.545Z,5.5
2023-04-28T23:10:46.589Z,5.5
2023-04-28T23:15:46.636Z,5.4
2023-04-28T23:25:46.571Z,5.4
2023-04-28T23:35:46.569Z,5.4
2023-04-28T23:40:46.565Z,5.4
2023-04-28T23:50:46.573Z,5.4
